ケアンズ の空港の天気 - METARとTAF

ケアンズ国際空港 ( YBCS / CNS ) - オーストラリア クイーンズランド州ケアンズ
飛行場実況気象(Metar)
観測時間09/28 10:00 AEST (09/28 00:00 UTC)
風向・風速南東 6m/s
視程10km以上
天気現象
全天の8割程度の雲 雲底高度 1400m
気温30℃
湿度55%
気圧1013hPa
METARYBCS 280000Z AUTO 14011KT 9999 // BKN046 30/20 Q1013
過去の天気等 Google飛行場航空写真 Wunderground天気予報

過去48時間のMETAR

飛行場予報(TAF)
発表時間: 9/28 09:02 AEST (9/27 23:02 UTC)
予報対象時間: 28日10時 AEST ~ 29日10時 AEST
風向・風速東 6m/s
視程10km以上
全天の4割程度の雲 雲底高度 1220m
28日19時 AEST から
風向・風速南南東 4m/s
視程10km以上
少しの雲 雲底高度 610m
全天の4割程度の雲 雲底高度 910m
TAF YBCS 272302Z 2800/2900 08012KT 9999 SCT040
FM280900 16008KT 9999 FEW020 SCT030